Terminal Aerodrome Forecast
Issued by NWS Charleston, WV

Current Version | Previous Version | Graphics & Text | Print | Product List | Glossary On
Versions: 1 2 3 4 5 6 7 8 9 10 11 12 13 14 15 16 17 18 19 20 21 22 23 24 25 26 27
000
FTUS41 KRLX 231234 AAA
TAFEKN
TAF AMD
KEKN 231234Z 2313/2412 00000KT 1/4SM FG BKN001
      TEMPO 2313/2314 2SM BR SCT001 BKN040
     FM231400 21004KT 4SM BR BKN040
      TEMPO 2314/2316 6SM BR BKN025
     FM231600 23005KT P6SM BKN040
     FM240700 17004KT 5SM BR SCT040=

USA.gov is the U.S. government's official web portal to all federal, state and local government web resources and services.